Pep, Texas
Current Conditions -  °F | °C
As of 11:53 AM on Friday 31 Oct 2014 (Local Time) from KLBB Reporting Station
Few Clouds Few Clouds  
Wind Chill: 60°   Ceiling: Unl
Heat Index: 60°   Visibility: 10mi
Dew Point: 33°   Wind: 10mph
Humidity: 36%   Direction: 100°E
Pressure: 30.44"   Gusts: 18mph
Location:  33.81°N, 102.56°W
Report Text: KLBB 311653Z 10009G16KT 10SM FEW300 16/01 A3044 RMK AO2 SLP290 T01560006
Loading
Personal Weather Stations






























Interactive Weather Map
Tropical Storm Tracking
New forecast layout! Learn more

10-Day Weather Forecast

Advertisements
Track Severe Weather on mobile